sensor_id;sensor_type;location;lat;lon;timestamp;pressure;altitude;pressure_sealevel;temperature;humidity
69247;BME280;56358;56.328;43.992;2022-08-01T00:00:50;100851.38;;;16.66;70.77
69247;BME280;56358;56.328;43.992;2022-08-01T00:02:51;100871.16;;;16.66;70.96
69247;BME280;56358;56.328;43.992;2022-08-01T00:04:54;100854.22;;;16.64;71.60
69247;BME280;56358;56.328;43.992;2022-08-01T00:06:55;100853.38;;;16.64;71.79
69247;BME280;56358;56.328;43.992;2022-08-01T00:08:56;100847.81;;;16.65;71.70
69247;BME280;56358;56.328;43.992;2022-08-01T00:10:56;100864.34;;;16.62;72.02
69247;BME280;56358;56.328;43.992;2022-08-01T00:12:57;100847.56;;;16.58;72.15
69247;BME280;56358;56.328;43.992;2022-08-01T00:14:58;100854.28;;;16.54;72.67
69247;BME280;56358;56.328;43.992;2022-08-01T00:16:59;100753.13;;;16.00;72.42
69247;BME280;56358;56.328;43.992;2022-08-01T00:18:59;100866.91;;;16.64;72.61
69247;BME280;56358;56.328;43.992;2022-08-01T00:21:00;100866.94;;;16.54;72.47
69247;BME280;56358;56.328;43.992;2022-08-01T00:23:02;100850.13;;;16.60;72.92
69247;BME280;56358;56.328;43.992;2022-08-01T00:25:04;100861.63;;;16.62;72.93
69247;BME280;56358;56.328;43.992;2022-08-01T00:27:05;100829.78;;;16.46;73.31
69247;BME280;56358;56.328;43.992;2022-08-01T00:29:06;100859.38;;;16.57;73.31
69247;BME280;56358;56.328;43.992;2022-08-01T00:31:07;100855.28;;;16.53;73.66
69247;BME280;56358;56.328;43.992;2022-08-01T00:33:10;100854.03;;;16.48;73.28
69247;BME280;56358;56.328;43.992;2022-08-01T00:35:11;100849.34;;;16.40;73.18
69247;BME280;56358;56.328;43.992;2022-08-01T00:37:12;100839.56;;;16.29;73.66
69247;BME280;56358;56.328;43.992;2022-08-01T00:39:12;100846.19;;;16.45;73.38
69247;BME280;56358;56.328;43.992;2022-08-01T00:41:13;100855.59;;;16.40;72.74
69247;BME280;56358;56.328;43.992;2022-08-01T00:43:14;100863.53;;;16.52;72.66
69247;BME280;56358;56.328;43.992;2022-08-01T00:45:15;100863.81;;;16.49;72.23
69247;BME280;56358;56.328;43.992;2022-08-01T00:47:16;100856.22;;;16.62;71.73
69247;BME280;56358;56.328;43.992;2022-08-01T00:49:17;100865.63;;;16.68;70.84
69247;BME280;56358;56.328;43.992;2022-08-01T00:51:17;100859.31;;;16.67;70.74
69247;BME280;56358;56.328;43.992;2022-08-01T00:53:18;100838.41;;;16.59;70.86
69247;BME280;56358;56.328;43.992;2022-08-01T00:55:19;100798.25;;;16.37;70.29
69247;BME280;56358;56.328;43.992;2022-08-01T00:57:20;100863.84;;;16.76;70.35
69247;BME280;56358;56.328;43.992;2022-08-01T00:59:22;100859.28;;;16.77;70.69
69247;BME280;56358;56.328;43.992;2022-08-01T01:01:24;100850.53;;;16.65;70.95
69247;BME280;56358;56.328;43.992;2022-08-01T01:03:26;100879.53;;;16.73;71.18
69247;BME280;56358;56.328;43.992;2022-08-01T01:05:27;100848.25;;;16.61;71.25
69247;BME280;56358;56.328;43.992;2022-08-01T01:07:34;100838.63;;;16.48;71.52
69247;BME280;56358;56.328;43.992;2022-08-01T01:10:00;100869.38;;;16.57;72.04
69247;BME280;56358;56.328;43.992;2022-08-01T01:14:44;100865.38;;;16.51;71.60
69247;BME280;56358;56.328;43.992;2022-08-01T01:16:47;100856.22;;;16.34;71.94
69247;BME280;56358;56.328;43.992;2022-08-01T01:18:52;100879.81;;;16.42;71.47
69247;BME280;56358;56.328;43.992;2022-08-01T01:21:04;100871.56;;;16.44;71.59
69247;BME280;56358;56.328;43.992;2022-08-01T01:28:15;100879.78;;;16.52;70.56
69247;BME280;56358;56.328;43.992;2022-08-01T01:30:18;100875.22;;;16.52;70.17
69247;BME280;56358;56.328;43.992;2022-08-01T01:34:22;100871.22;;;16.56;69.80
69247;BME280;56358;56.328;43.992;2022-08-01T01:36:26;100874.47;;;16.60;69.23
69247;BME280;56358;56.328;43.992;2022-08-01T01:38:32;100868.91;;;16.62;69.30
69247;BME280;56358;56.328;43.992;2022-08-01T01:40:34;100875.03;;;16.64;69.24
69247;BME280;56358;56.328;43.992;2022-08-01T01:42:36;100852.47;;;16.45;69.82
69247;BME280;56358;56.328;43.992;2022-08-01T01:44:38;100877.88;;;16.62;68.86
69247;BME280;56358;56.328;43.992;2022-08-01T01:46:40;100878.75;;;16.63;68.81
69247;BME280;56358;56.328;43.992;2022-08-01T01:48:43;100874.88;;;16.65;69.14
69247;BME280;56358;56.328;43.992;2022-08-01T01:50:47;100880.56;;;16.72;68.62
69247;BME280;56358;56.328;43.992;2022-08-01T01:52:48;100870.41;;;16.74;68.83
69247;BME280;56358;56.328;43.992;2022-08-01T01:54:51;100731.81;;;15.97;68.96
69247;BME280;56358;56.328;43.992;2022-08-01T01:56:56;100797.53;;;16.35;68.50
69247;BME280;56358;56.328;43.992;2022-08-01T01:59:02;100882.09;;;16.74;68.92
69247;BME280;56358;56.328;43.992;2022-08-01T02:01:04;100869.19;;;16.86;69.25
69247;BME280;56358;56.328;43.992;2022-08-01T02:03:09;100872.78;;;16.87;68.85
69247;BME280;56358;56.328;43.992;2022-08-01T02:05:12;100796.06;;;16.40;69.42
69247;BME280;56358;56.328;43.992;2022-08-01T02:07:17;100877.31;;;16.86;69.83
69247;BME280;56358;56.328;43.992;2022-08-01T02:09:20;100880.31;;;16.93;70.07
69247;BME280;56358;56.328;43.992;2022-08-01T02:11:22;100875.75;;;16.94;69.10
69247;BME280;56358;56.328;43.992;2022-08-01T02:13:23;100873.22;;;16.92;69.78
69247;BME280;56358;56.328;43.992;2022-08-01T02:15:24;100874.03;;;16.92;69.60
69247;BME280;56358;56.328;43.992;2022-08-01T02:17:26;100880.72;;;16.98;69.73
69247;BME280;56358;56.328;43.992;2022-08-01T02:19:28;100875.19;;;16.90;68.85
69247;BME280;56358;56.328;43.992;2022-08-01T02:21:32;100872.91;;;16.95;68.91
69247;BME280;56358;56.328;43.992;2022-08-01T02:23:37;100870.66;;;16.90;68.26
69247;BME280;56358;56.328;43.992;2022-08-01T02:25:46;100812.06;;;16.62;67.77
69247;BME280;56358;56.328;43.992;2022-08-01T02:30:04;100887.00;;;17.17;67.89
69247;BME280;56358;56.328;43.992;2022-08-01T02:32:07;100885.69;;;17.21;67.42
69247;BME280;56358;56.328;43.992;2022-08-01T02:34:13;100883.69;;;17.23;67.22
69247;BME280;56358;56.328;43.992;2022-08-01T02:36:19;100885.09;;;17.27;66.72
69247;BME280;56358;56.328;43.992;2022-08-01T02:38:24;100881.91;;;17.32;66.78
69247;BME280;56358;56.328;43.992;2022-08-01T02:40:29;100871.22;;;17.30;66.57
69247;BME280;56358;56.328;43.992;2022-08-01T02:42:34;100898.47;;;17.47;65.29
69247;BME280;56358;56.328;43.992;2022-08-01T02:44:41;100881.84;;;17.41;65.49
69247;BME280;56358;56.328;43.992;2022-08-01T02:47:03;100872.56;;;17.44;64.16
69247;BME280;56358;56.328;43.992;2022-08-01T02:49:07;100874.25;;;17.45;64.86
69247;BME280;56358;56.328;43.992;2022-08-01T02:51:10;100695.81;;;16.42;64.68
69247;BME280;56358;56.328;43.992;2022-08-01T02:53:13;100864.72;;;17.41;64.92
69247;BME280;56358;56.328;43.992;2022-08-01T02:55:15;100901.97;;;17.57;65.19
69247;BME280;56358;56.328;43.992;2022-08-01T02:57:18;100885.38;;;17.60;64.07
69247;BME280;56358;56.328;43.992;2022-08-01T02:59:24;100891.34;;;17.64;63.75
69247;BME280;56358;56.328;43.992;2022-08-01T03:01:26;100890.81;;;17.60;63.54
69247;BME280;56358;56.328;43.992;2022-08-01T03:03:29;100869.94;;;17.52;63.40
69247;BME280;56358;56.328;43.992;2022-08-01T03:05:31;100888.50;;;17.65;62.96
69247;BME280;56358;56.328;43.992;2022-08-01T03:07:32;100885.72;;;17.75;63.07
69247;BME280;56358;56.328;43.992;2022-08-01T03:09:37;100903.03;;;17.82;63.43
69247;BME280;56358;56.328;43.992;2022-08-01T03:11:41;100899.34;;;17.83;62.66
69247;BME280;56358;56.328;43.992;2022-08-01T03:13:43;100865.78;;;17.66;63.18
69247;BME280;56358;56.328;43.992;2022-08-01T03:15:45;100896.47;;;17.85;63.27
69247;BME280;56358;56.328;43.992;2022-08-01T03:17:47;100883.69;;;17.77;63.34
69247;BME280;56358;56.328;43.992;2022-08-01T03:19:51;100874.16;;;17.73;63.52
69247;BME280;56358;56.328;43.992;2022-08-01T03:21:53;100909.41;;;17.91;63.42
69247;BME280;56358;56.328;43.992;2022-08-01T03:23:58;100888.66;;;17.82;62.98
69247;BME280;56358;56.328;43.992;2022-08-01T03:26:00;100909.28;;;17.92;63.22
69247;BME280;56358;56.328;43.992;2022-08-01T03:28:04;100823.06;;;17.42;62.87
69247;BME280;56358;56.328;43.992;2022-08-01T03:30:05;100901.56;;;17.88;62.36
69247;BME280;56358;56.328;43.992;2022-08-01T03:32:08;100888.72;;;17.90;61.70
69247;BME280;56358;56.328;43.992;2022-08-01T03:34:11;100902.69;;;17.95;62.13
69247;BME280;56358;56.328;43.992;2022-08-01T03:36:12;100905.84;;;18.08;62.08
69247;BME280;56358;56.328;43.992;2022-08-01T03:38:17;100897.53;;;18.10;61.95
69247;BME280;56358;56.328;43.992;2022-08-01T03:40:25;100908.44;;;18.18;61.50
69247;BME280;56358;56.328;43.992;2022-08-01T03:42:33;100899.66;;;18.24;61.38
69247;BME280;56358;56.328;43.992;2022-08-01T03:44:35;100907.88;;;18.33;61.65
69247;BME280;56358;56.328;43.992;2022-08-01T03:46:46;100907.16;;;18.31;61.86
69247;BME280;56358;56.328;43.992;2022-08-01T03:48:48;100805.47;;;17.90;61.69
69247;BME280;56358;56.328;43.992;2022-08-01T03:50:51;100898.63;;;18.52;61.96
69247;BME280;56358;56.328;43.992;2022-08-01T03:52:54;100903.06;;;18.53;61.45
69247;BME280;56358;56.328;43.992;2022-08-01T03:55:04;100888.31;;;18.55;61.93
69247;BME280;56358;56.328;43.992;2022-08-01T03:57:08;100894.75;;;18.54;61.38
69247;BME280;56358;56.328;43.992;2022-08-01T03:59:10;100909.38;;;18.62;61.95
69247;BME280;56358;56.328;43.992;2022-08-01T04:01:11;100848.09;;;18.24;61.82
69247;BME280;56358;56.328;43.992;2022-08-01T04:03:12;100847.03;;;18.17;61.56
69247;BME280;56358;56.328;43.992;2022-08-01T04:05:14;100895.06;;;18.51;62.03
69247;BME280;56358;56.328;43.992;2022-08-01T04:07:29;100916.16;;;18.66;62.71
69247;BME280;56358;56.328;43.992;2022-08-01T04:09:30;100911.28;;;18.69;61.43
69247;BME280;56358;56.328;43.992;2022-08-01T04:11:32;100861.25;;;18.46;61.58
69247;BME280;56358;56.328;43.992;2022-08-01T04:13:33;100925.09;;;18.84;60.66
69247;BME280;56358;56.328;43.992;2022-08-01T04:15:33;100923.31;;;18.93;60.83
69247;BME280;56358;56.328;43.992;2022-08-01T04:17:34;100914.97;;;18.95;60.48
69247;BME280;56358;56.328;43.992;2022-08-01T04:19:35;100926.91;;;19.10;60.06
69247;BME280;56358;56.328;43.992;2022-08-01T04:21:36;100921.66;;;19.17;59.15
69247;BME280;56358;56.328;43.992;2022-08-01T04:23:38;100910.47;;;19.12;59.37
69247;BME280;56358;56.328;43.992;2022-08-01T04:25:41;100862.19;;;18.97;58.47
69247;BME280;56358;56.328;43.992;2022-08-01T04:27:46;100923.44;;;19.42;58.64
69247;BME280;56358;56.328;43.992;2022-08-01T04:29:49;100925.84;;;19.54;58.79
69247;BME280;56358;56.328;43.992;2022-08-01T04:31:53;100876.53;;;19.32;59.25
69247;BME280;56358;56.328;43.992;2022-08-01T04:33:55;100911.06;;;19.56;59.14
69247;BME280;56358;56.328;43.992;2022-08-01T04:35:59;100903.41;;;19.60;58.20
69247;BME280;56358;56.328;43.992;2022-08-01T04:38:02;100909.34;;;19.64;58.73
69247;BME280;56358;56.328;43.992;2022-08-01T04:40:05;100908.84;;;19.76;56.83
69247;BME280;56358;56.328;43.992;2022-08-01T04:42:07;100926.41;;;19.90;55.66
69247;BME280;56358;56.328;43.992;2022-08-01T04:44:08;100922.81;;;19.98;56.00
69247;BME280;56358;56.328;43.992;2022-08-01T04:46:09;100918.41;;;20.05;55.54
69247;BME280;56358;56.328;43.992;2022-08-01T04:48:13;100915.50;;;20.15;56.38
69247;BME280;56358;56.328;43.992;2022-08-01T04:50:15;100937.28;;;20.23;56.97
69247;BME280;56358;56.328;43.992;2022-08-01T04:52:16;100920.09;;;20.31;55.59
69247;BME280;56358;56.328;43.992;2022-08-01T04:54:18;100928.41;;;20.38;54.76
69247;BME280;56358;56.328;43.992;2022-08-01T04:56:20;100924.97;;;20.44;54.43
69247;BME280;56358;56.328;43.992;2022-08-01T04:58:21;100915.78;;;20.45;53.58
69247;BME280;56358;56.328;43.992;2022-08-01T05:00:21;100921.38;;;20.52;54.37
69247;BME280;56358;56.328;43.992;2022-08-01T05:02:22;100930.03;;;20.64;53.23
69247;BME280;56358;56.328;43.992;2022-08-01T05:04:23;100925.59;;;20.71;52.75
69247;BME280;56358;56.328;43.992;2022-08-01T05:06:24;100928.19;;;20.72;51.35
69247;BME280;56358;56.328;43.992;2022-08-01T05:08:25;100924.59;;;20.72;50.47
69247;BME280;56358;56.328;43.992;2022-08-01T05:10:26;100900.91;;;20.64;50.79
69247;BME280;56358;56.328;43.992;2022-08-01T05:12:27;100904.31;;;20.74;50.90
69247;BME280;56358;56.328;43.992;2022-08-01T05:14:28;100924.84;;;20.93;50.55
69247;BME280;56358;56.328;43.992;2022-08-01T05:16:32;100879.94;;;20.81;50.10
69247;BME280;56358;56.328;43.992;2022-08-01T05:18:32;100920.19;;;21.10;50.29
69247;BME280;56358;56.328;43.992;2022-08-01T05:20:33;100915.03;;;21.16;50.29
69247;BME280;56358;56.328;43.992;2022-08-01T05:22:34;100881.03;;;21.03;49.69
69247;BME280;56358;56.328;43.992;2022-08-01T05:24:37;100910.75;;;21.21;50.03
69247;BME280;56358;56.328;43.992;2022-08-01T05:26:38;100920.69;;;21.37;49.86
69247;BME280;56358;56.328;43.992;2022-08-01T05:28:39;100915.19;;;21.46;49.42
69247;BME280;56358;56.328;43.992;2022-08-01T05:30:40;100921.81;;;21.51;50.39
69247;BME280;56358;56.328;43.992;2022-08-01T05:32:41;100907.31;;;21.51;51.11
69247;BME280;56358;56.328;43.992;2022-08-01T05:34:42;100923.59;;;21.67;51.31
69247;BME280;56358;56.328;43.992;2022-08-01T05:36:43;100895.91;;;21.55;50.11
69247;BME280;56358;56.328;43.992;2022-08-01T05:38:44;100919.72;;;21.62;50.24
69247;BME280;56358;56.328;43.992;2022-08-01T05:40:45;100921.34;;;21.71;50.35
69247;BME280;56358;56.328;43.992;2022-08-01T05:42:49;100896.97;;;21.69;50.23
69247;BME280;56358;56.328;43.992;2022-08-01T05:44:49;100911.13;;;21.73;49.95
69247;BME280;56358;56.328;43.992;2022-08-01T05:46:51;100908.09;;;21.68;49.82
69247;BME280;56358;56.328;43.992;2022-08-01T05:48:52;100896.69;;;21.64;50.17
69247;BME280;56358;56.328;43.992;2022-08-01T05:50:53;100848.22;;;21.43;49.91
69247;BME280;56358;56.328;43.992;2022-08-01T05:52:54;100904.06;;;21.79;49.17
69247;BME280;56358;56.328;43.992;2022-08-01T05:54:55;100828.09;;;21.44;49.38
69247;BME280;56358;56.328;43.992;2022-08-01T05:56:55;100902.75;;;21.74;50.67
69247;BME280;56358;56.328;43.992;2022-08-01T05:58:59;100902.00;;;21.81;49.80
69247;BME280;56358;56.328;43.992;2022-08-01T06:01:00;100904.91;;;21.79;49.31
69247;BME280;56358;56.328;43.992;2022-08-01T06:03:01;100898.34;;;21.88;49.05
69247;BME280;56358;56.328;43.992;2022-08-01T06:05:02;100896.22;;;21.99;49.19
69247;BME280;56358;56.328;43.992;2022-08-01T06:07:04;100905.16;;;22.07;47.32
69247;BME280;56358;56.328;43.992;2022-08-01T06:09:04;100911.78;;;22.13;46.61
69247;BME280;56358;56.328;43.992;2022-08-01T06:11:05;100832.28;;;21.78;46.64
69247;BME280;56358;56.328;43.992;2022-08-01T06:13:06;100899.75;;;22.22;46.33
69247;BME280;56358;56.328;43.992;2022-08-01T06:15:07;100898.28;;;22.35;46.58
69247;BME280;56358;56.328;43.992;2022-08-01T06:17:08;100897.16;;;22.44;46.54
69247;BME280;56358;56.328;43.992;2022-08-01T06:19:09;100845.59;;;22.11;46.40
69247;BME280;56358;56.328;43.992;2022-08-01T06:21:09;100889.91;;;22.51;46.44
69247;BME280;56358;56.328;43.992;2022-08-01T06:23:10;100898.97;;;22.67;46.58
69247;BME280;56358;56.328;43.992;2022-08-01T06:25:11;100899.16;;;22.65;46.60
69247;BME280;56358;56.328;43.992;2022-08-01T06:27:12;100878.53;;;22.63;46.03
69247;BME280;56358;56.328;43.992;2022-08-01T06:29:12;100894.59;;;22.87;45.79
69247;BME280;56358;56.328;43.992;2022-08-01T06:31:13;100893.28;;;22.83;44.58
69247;BME280;56358;56.328;43.992;2022-08-01T06:33:15;100907.78;;;22.84;44.35
69247;BME280;56358;56.328;43.992;2022-08-01T06:35:17;100890.56;;;22.68;44.33
69247;BME280;56358;56.328;43.992;2022-08-01T06:37:21;100890.63;;;22.90;43.65
69247;BME280;56358;56.328;43.992;2022-08-01T06:39:21;100895.25;;;22.89;44.00
69247;BME280;56358;56.328;43.992;2022-08-01T06:41:22;100896.84;;;22.99;44.43
69247;BME280;56358;56.328;43.992;2022-08-01T06:43:23;100839.69;;;22.67;43.88
69247;BME280;56358;56.328;43.992;2022-08-01T06:45:24;100894.00;;;23.07;43.81
69247;BME280;56358;56.328;43.992;2022-08-01T06:47:27;100901.34;;;23.21;43.76
69247;BME280;56358;56.328;43.992;2022-08-01T06:49:28;100894.00;;;23.22;42.47
69247;BME280;56358;56.328;43.992;2022-08-01T06:51:29;100897.00;;;23.27;40.43
69247;BME280;56358;56.328;43.992;2022-08-01T06:53:30;100899.13;;;23.32;40.52
69247;BME280;56358;56.328;43.992;2022-08-01T06:55:30;100888.19;;;23.32;41.26
69247;BME280;56358;56.328;43.992;2022-08-01T06:57:31;100910.50;;;23.50;40.51
69247;BME280;56358;56.328;43.992;2022-08-01T06:59:33;100897.47;;;23.52;40.68
69247;BME280;56358;56.328;43.992;2022-08-01T07:01:34;100895.56;;;23.53;40.13
69247;BME280;56358;56.328;43.992;2022-08-01T07:03:35;100911.31;;;23.51;40.31
69247;BME280;56358;56.328;43.992;2022-08-01T07:05:35;100918.00;;;23.63;40.62
69247;BME280;56358;56.328;43.992;2022-08-01T07:07:40;100836.84;;;23.12;40.15
69247;BME280;56358;56.328;43.992;2022-08-01T07:09:40;100900.50;;;23.42;40.32
69247;BME280;56358;56.328;43.992;2022-08-01T07:11:42;100904.63;;;23.53;40.46
69247;BME280;56358;56.328;43.992;2022-08-01T07:13:43;100897.00;;;23.49;40.24
69247;BME280;56358;56.328;43.992;2022-08-01T07:15:46;100894.88;;;23.66;39.42
69247;BME280;56358;56.328;43.992;2022-08-01T07:17:47;100916.84;;;23.72;40.16
69247;BME280;56358;56.328;43.992;2022-08-01T07:19:48;100815.44;;;23.16;39.95
69247;BME280;56358;56.328;43.992;2022-08-01T07:21:49;100903.16;;;23.72;39.35
69247;BME280;56358;56.328;43.992;2022-08-01T07:23:49;100893.88;;;23.73;38.64
69247;BME280;56358;56.328;43.992;2022-08-01T07:25:50;100878.19;;;23.39;39.41
69247;BME280;56358;56.328;43.992;2022-08-01T07:27:52;100891.00;;;23.60;39.37
69247;BME280;56358;56.328;43.992;2022-08-01T07:29:53;100890.63;;;23.63;39.13
69247;BME280;56358;56.328;43.992;2022-08-01T07:31:56;100894.78;;;23.81;39.33
69247;BME280;56358;56.328;43.992;2022-08-01T07:33:57;100881.16;;;23.87;38.96
69247;BME280;56358;56.328;43.992;2022-08-01T07:35:57;100836.47;;;23.58;39.09
69247;BME280;56358;56.328;43.992;2022-08-01T07:37:58;100901.38;;;23.86;39.63
69247;BME280;56358;56.328;43.992;2022-08-01T07:39:59;100878.31;;;23.74;39.97
69247;BME280;56358;56.328;43.992;2022-08-01T07:41:59;100906.38;;;24.04;39.24
69247;BME280;56358;56.328;43.992;2022-08-01T07:44:00;100833.84;;;23.72;38.93
69247;BME280;56358;56.328;43.992;2022-08-01T07:46:04;100898.22;;;24.11;38.51
69247;BME280;56358;56.328;43.992;2022-08-01T07:48:06;100903.16;;;24.22;38.77
69247;BME280;56358;56.328;43.992;2022-08-01T07:50:08;100903.69;;;24.39;38.16
69247;BME280;56358;56.328;43.992;2022-08-01T07:52:11;100898.88;;;24.48;38.26
69247;BME280;56358;56.328;43.992;2022-08-01T07:54:12;100880.13;;;24.45;38.22
69247;BME280;56358;56.328;43.992;2022-08-01T07:56:13;100884.78;;;24.51;38.18
69247;BME280;56358;56.328;43.992;2022-08-01T07:58:14;100887.94;;;24.48;38.55
69247;BME280;56358;56.328;43.992;2022-08-01T08:00:15;100817.06;;;24.03;38.21
69247;BME280;56358;56.328;43.992;2022-08-01T08:02:16;100883.41;;;24.34;38.74
69247;BME280;56358;56.328;43.992;2022-08-01T08:04:17;100880.34;;;24.43;38.66
69247;BME280;56358;56.328;43.992;2022-08-01T08:06:18;100844.22;;;24.33;38.35
69247;BME280;56358;56.328;43.992;2022-08-01T08:08:19;100898.19;;;24.68;38.48
69247;BME280;56358;56.328;43.992;2022-08-01T08:10:20;100884.13;;;24.77;38.57
69247;BME280;56358;56.328;43.992;2022-08-01T08:12:23;100885.63;;;24.87;38.12
69247;BME280;56358;56.328;43.992;2022-08-01T08:14:24;100899.31;;;24.80;37.84
69247;BME280;56358;56.328;43.992;2022-08-01T08:16:25;100889.00;;;24.82;37.58
69247;BME280;56358;56.328;43.992;2022-08-01T08:18:26;100809.31;;;24.49;37.61
69247;BME280;56358;56.328;43.992;2022-08-01T08:20:27;100872.19;;;24.99;37.73
69247;BME280;56358;56.328;43.992;2022-08-01T08:22:29;100872.38;;;24.97;37.07
69247;BME280;56358;56.328;43.992;2022-08-01T08:24:30;100883.41;;;25.10;36.17
69247;BME280;56358;56.328;43.992;2022-08-01T08:26:30;100857.84;;;25.03;35.88
69247;BME280;56358;56.328;43.992;2022-08-01T08:28:31;100870.97;;;25.21;35.46
69247;BME280;56358;56.328;43.992;2022-08-01T08:30:32;100817.31;;;24.92;35.71
69247;BME280;56358;56.328;43.992;2022-08-01T08:32:34;100884.13;;;25.39;35.27
69247;BME280;56358;56.328;43.992;2022-08-01T08:34:35;100888.34;;;25.42;35.84
69247;BME280;56358;56.328;43.992;2022-08-01T08:36:36;100805.03;;;24.81;36.23
69247;BME280;56358;56.328;43.992;2022-08-01T08:38:37;100882.97;;;25.14;35.81
69247;BME280;56358;56.328;43.992;2022-08-01T08:40:41;100878.91;;;24.96;35.84
69247;BME280;56358;56.328;43.992;2022-08-01T08:42:42;100889.47;;;24.99;36.52
69247;BME280;56358;56.328;43.992;2022-08-01T08:44:43;100872.44;;;25.10;36.36
69247;BME280;56358;56.328;43.992;2022-08-01T08:46:46;100883.09;;;25.47;35.61
69247;BME280;56358;56.328;43.992;2022-08-01T08:48:47;100878.28;;;25.63;35.43
69247;BME280;56358;56.328;43.992;2022-08-01T08:50:49;100878.91;;;25.78;35.49
69247;BME280;56358;56.328;43.992;2022-08-01T08:52:50;100876.16;;;25.91;35.33
69247;BME280;56358;56.328;43.992;2022-08-01T08:54:53;100889.88;;;25.98;35.44
69247;BME280;56358;56.328;43.992;2022-08-01T08:56:55;100898.97;;;26.05;35.25
69247;BME280;56358;56.328;43.992;2022-08-01T08:58:56;100895.63;;;26.03;34.71
69247;BME280;56358;56.328;43.992;2022-08-01T09:00:57;100883.56;;;25.98;34.28
69247;BME280;56358;56.328;43.992;2022-08-01T09:02:59;100833.91;;;25.92;35.10
69247;BME280;56358;56.328;43.992;2022-08-01T09:04:59;100895.63;;;26.03;36.29
69247;BME280;56358;56.328;43.992;2022-08-01T09:07:03;100879.72;;;25.85;35.71
69247;BME280;56358;56.328;43.992;2022-08-01T09:09:06;100904.88;;;25.82;35.54
69247;BME280;56358;56.328;43.992;2022-08-01T09:11:07;100894.75;;;25.63;35.30
69247;BME280;56358;56.328;43.992;2022-08-01T09:13:13;100894.28;;;25.46;35.69
69247;BME280;56358;56.328;43.992;2022-08-01T09:15:14;100899.13;;;25.43;35.74
69247;BME280;56358;56.328;43.992;2022-08-01T09:17:15;100891.09;;;25.35;36.04
69247;BME280;56358;56.328;43.992;2022-08-01T09:19:18;100896.75;;;25.27;35.62
69247;BME280;56358;56.328;43.992;2022-08-01T09:21:22;100889.56;;;25.26;35.33
69247;BME280;56358;56.328;43.992;2022-08-01T09:23:38;100871.13;;;25.00;35.28
69247;BME280;56358;56.328;43.992;2022-08-01T09:25:52;100892.03;;;25.07;35.03
69247;BME280;56358;56.328;43.992;2022-08-01T09:28:05;100892.88;;;25.01;35.29
69247;BME280;56358;56.328;43.992;2022-08-01T09:32:09;100887.78;;;25.05;35.69
69247;BME280;56358;56.328;43.992;2022-08-01T09:34:10;100899.13;;;25.50;34.90
69247;BME280;56358;56.328;43.992;2022-08-01T09:36:11;100834.34;;;25.42;34.93
69247;BME280;56358;56.328;43.992;2022-08-01T09:38:18;100898.56;;;26.02;35.23
69247;BME280;56358;56.328;43.992;2022-08-01T09:40:19;100898.97;;;26.19;34.69
69247;BME280;56358;56.328;43.992;2022-08-01T09:42:23;100898.25;;;26.70;34.27
69247;BME280;56358;56.328;43.992;2022-08-01T09:44:39;100890.03;;;27.16;33.04
69247;BME280;56358;56.328;43.992;2022-08-01T09:48:55;100890.34;;;27.71;31.13
69247;BME280;56358;56.328;43.992;2022-08-01T09:50:58;100885.53;;;27.92;31.36
69247;BME280;56358;56.328;43.992;2022-08-01T09:52:59;100880.03;;;28.36;30.91
69247;BME280;56358;56.328;43.992;2022-08-01T09:55:03;100894.38;;;28.45;30.27
69247;BME280;56358;56.328;43.992;2022-08-01T09:57:16;100876.44;;;27.85;31.09
69247;BME280;56358;56.328;43.992;2022-08-01T09:59:17;100888.19;;;27.03;32.32
69247;BME280;56358;56.328;43.992;2022-08-01T10:01:20;100894.66;;;26.70;33.35
69247;BME280;56358;56.328;43.992;2022-08-01T10:03:26;100891.72;;;26.65;33.56
69247;BME280;56358;56.328;43.992;2022-08-01T10:05:34;100893.13;;;27.39;32.17
69247;BME280;56358;56.328;43.992;2022-08-01T10:07:36;100900.50;;;28.03;31.13
69247;BME280;56358;56.328;43.992;2022-08-01T10:09:55;100885.28;;;28.81;29.79
69247;BME280;56358;56.328;43.992;2022-08-01T10:11:56;100883.91;;;29.39;29.33
69247;BME280;56358;56.328;43.992;2022-08-01T10:13:59;100872.84;;;29.93;28.43
69247;BME280;56358;56.328;43.992;2022-08-01T10:16:01;100885.34;;;30.20;27.73
69247;BME280;56358;56.328;43.992;2022-08-01T10:18:04;100881.47;;;30.45;27.17
69247;BME280;56358;56.328;43.992;2022-08-01T10:20:07;100820.38;;;30.58;27.21
69247;BME280;56358;56.328;43.992;2022-08-01T10:22:09;100884.72;;;31.18;26.13
69247;BME280;56358;56.328;43.992;2022-08-01T10:24:10;100899.88;;;31.44;26.01
69247;BME280;56358;56.328;43.992;2022-08-01T10:26:13;100884.31;;;31.26;26.17
69247;BME280;56358;56.328;43.992;2022-08-01T10:28:16;100891.59;;;31.15;27.44
69247;BME280;56358;56.328;43.992;2022-08-01T10:30:17;100812.00;;;30.41;27.00
69247;BME280;56358;56.328;43.992;2022-08-01T10:32:21;100888.72;;;30.22;27.51
69247;BME280;56358;56.328;43.992;2022-08-01T10:34:22;100878.78;;;29.67;28.71
69247;BME280;56358;56.328;43.992;2022-08-01T10:36:24;100886.50;;;29.34;28.95
69247;BME280;56358;56.328;43.992;2022-08-01T10:38:27;100885.19;;;28.88;29.62
69247;BME280;56358;56.328;43.992;2022-08-01T10:40:29;100885.50;;;28.80;30.20
69247;BME280;56358;56.328;43.992;2022-08-01T10:42:30;100831.31;;;28.85;29.63
69247;BME280;56358;56.328;43.992;2022-08-01T10:44:31;100885.47;;;29.17;28.90
69247;BME280;56358;56.328;43.992;2022-08-01T10:46:45;100866.97;;;28.68;29.49
69247;BME280;56358;56.328;43.992;2022-08-01T10:48:54;100870.38;;;28.45;28.83